Alexandria, United Kingdom
Current Conditions -  °F | °C
As of 1:20 AM on Sunday 26 Oct 2014 (Local Time) from EGPF Reporting Station
Light Rain Light Rain  
Wind Chill: 11°   Ceiling: 1800
Heat Index: 11°   Visibility: 4mi
Dew Point:   Wind: 22mph
Humidity: 88%   Direction: 220°SW
Pressure: 29.71"   Gusts: NA
Location:  55.99°N, 4.59°W
Report Text: EGPF 260020Z AUTO 22019KT 6000 -RA BKN018 OVC045 11/09 Q1006
Loading
Personal Weather Stations






























Interactive Weather Map
Tropical Storm Tracking
New forecast layout! Learn more

10-Day Weather Forecast

Advertisements
Track Severe Weather on mobile